createdAt,value
2018-11-23T00:00:47.815Z,1.03
2018-11-23T00:05:50.949Z,1.05
2018-11-23T00:10:54.098Z,1.05
2018-11-23T00:15:57.305Z,0.94
2018-11-23T00:21:00.674Z,0.95
2018-11-23T00:26:04.215Z,0.84
2018-11-23T00:31:07.520Z,0.88
2018-11-23T00:36:10.688Z,0.81
2018-11-23T00:41:13.825Z,0.77
2018-11-23T00:46:16.981Z,0.76
2018-11-23T00:51:20.080Z,0.80
2018-11-23T00:56:23.216Z,0.83
2018-11-23T01:01:26.450Z,0.77
2018-11-23T01:06:29.623Z,0.74
2018-11-23T01:11:32.779Z,0.70
2018-11-23T01:16:35.952Z,0.74
2018-11-23T01:21:39.197Z,0.74
2018-11-23T01:26:42.452Z,0.80
2018-11-23T01:31:45.630Z,0.76
2018-11-23T01:36:48.802Z,0.71
2018-11-23T01:41:51.917Z,0.69
2018-11-23T01:46:55.057Z,0.70
2018-11-23T01:51:58.398Z,0.73
2018-11-23T01:57:01.594Z,0.66
2018-11-23T02:02:05.271Z,0.69
2018-11-23T02:07:08.502Z,0.67
2018-11-23T02:12:11.863Z,0.71
2018-11-23T02:17:15.066Z,0.73
2018-11-23T02:22:18.407Z,0.66
2018-11-23T02:27:21.560Z,0.70
2018-11-23T02:32:24.912Z,0.65
2018-11-23T02:37:28.069Z,0.69
2018-11-23T02:42:31.263Z,0.69
2018-11-23T02:47:34.362Z,0.67
2018-11-23T02:52:37.539Z,0.72
2018-11-23T02:57:40.867Z,0.72
2018-11-23T03:02:44.071Z,0.73
2018-11-23T03:07:47.317Z,0.73
2018-11-23T03:12:50.538Z,0.69
2018-11-23T03:17:53.673Z,0.69
2018-11-23T03:22:56.866Z,0.72
2018-11-23T03:28:00.017Z,0.76
2018-11-23T03:33:03.494Z,0.85
2018-11-23T03:38:06.697Z,0.78
2018-11-23T03:43:09.946Z,0.80
2018-11-23T03:48:13.157Z,0.82
2018-11-23T03:53:16.297Z,0.76
2018-11-23T03:58:19.485Z,0.77
2018-11-23T04:03:22.628Z,0.82
2018-11-23T04:08:25.810Z,0.77
2018-11-23T04:13:29.618Z,0.79
2018-11-23T04:18:32.969Z,0.80
2018-11-23T04:23:36.143Z,0.82
2018-11-23T04:28:39.294Z,0.78
2018-11-23T04:33:42.513Z,0.79
2018-11-23T04:38:45.677Z,0.80
2018-11-23T04:43:48.976Z,0.79
2018-11-23T04:48:52.183Z,0.82
2018-11-23T04:53:56.948Z,0.80
2018-11-23T04:59:00.185Z,0.88
2018-11-23T05:04:03.791Z,0.86
2018-11-23T05:09:08.555Z,0.85
2018-11-23T05:14:11.734Z,0.87
2018-11-23T05:19:15.005Z,0.90
2018-11-23T05:24:18.188Z,0.85
2018-11-23T05:29:21.386Z,0.83
2018-11-23T05:34:25.032Z,0.81
2018-11-23T05:39:28.275Z,0.84
2018-11-23T05:44:31.451Z,0.84
2018-11-23T05:49:34.592Z,0.91
2018-11-23T05:54:37.825Z,0.93
2018-11-23T05:59:43.529Z,0.92
2018-11-23T06:04:47.114Z,0.93
2018-11-23T06:09:54.697Z,0.96
2018-11-23T06:15:03.568Z,0.98
2018-11-23T06:20:13.289Z,0.96
2018-11-23T06:25:34.589Z,1.03
2018-11-23T06:30:37.819Z,1.09
2018-11-23T06:35:40.999Z,1.07
2018-11-23T06:40:44.204Z,1.14
2018-11-23T06:45:47.426Z,1.13
2018-11-23T06:50:50.839Z,1.18
2018-11-23T06:55:54.119Z,1.17
2018-11-23T07:00:57.375Z,1.23
2018-11-23T07:06:00.646Z,1.20
2018-11-23T07:11:04.267Z,1.25
2018-11-23T07:16:08.225Z,1.30
2018-11-23T07:21:11.425Z,1.29
2018-11-23T07:26:14.742Z,1.35
2018-11-23T07:31:17.981Z,1.39
2018-11-23T07:36:21.283Z,1.32
2018-11-23T07:41:35.717Z,1.40
2018-11-23T07:46:38.910Z,1.43
2018-11-23T07:51:42.467Z,1.47
2018-11-23T07:56:46.529Z,1.47
2018-11-23T08:01:49.836Z,1.49
2018-11-23T08:06:53.295Z,1.52
2018-11-23T08:11:56.641Z,1.53
2018-11-23T08:17:00.265Z,1.58
2018-11-23T08:22:03.490Z,1.71
2018-11-23T08:27:06.678Z,1.76
2018-11-23T08:32:10.277Z,1.88
2018-11-23T08:37:13.506Z,1.90
2018-11-23T08:42:16.943Z,1.97
2018-11-23T08:47:20.406Z,2.00
2018-11-23T08:52:23.696Z,2.09
2018-11-23T08:57:26.970Z,2.07
2018-11-23T09:02:30.155Z,2.09
2018-11-23T09:07:33.437Z,2.16
2018-11-23T09:12:37.102Z,2.18
2018-11-23T09:17:40.313Z,2.18
2018-11-23T09:22:43.474Z,2.25
2018-11-23T09:27:47.628Z,2.27
2018-11-23T09:32:51.491Z,2.37
2018-11-23T09:37:54.869Z,2.40
2018-11-23T09:42:58.096Z,2.45
2018-11-23T09:48:01.367Z,2.47
2018-11-23T09:53:05.126Z,2.57
2018-11-23T09:58:08.454Z,2.61
2018-11-23T10:03:11.723Z,2.64
2018-11-23T10:08:15.094Z,2.69
2018-11-23T10:13:18.505Z,2.73
2018-11-23T10:18:22.367Z,2.78
2018-11-23T10:23:26.057Z,2.89
2018-11-23T10:28:29.501Z,2.87
2018-11-23T10:33:32.948Z,2.96
2018-11-23T10:38:36.198Z,3.02
2018-11-23T10:43:39.527Z,3.08
2018-11-23T10:48:43.058Z,3.10
2018-11-23T10:53:48.448Z,3.16
2018-11-23T10:58:51.749Z,3.16
2018-11-23T11:03:54.883Z,3.22
2018-11-23T11:08:58.355Z,3.16
2018-11-23T11:14:01.715Z,3.25
2018-11-23T11:19:06.127Z,3.30
2018-11-23T11:24:09.751Z,3.37
2018-11-23T11:29:13.065Z,3.48
2018-11-23T11:34:19.153Z,3.65
2018-11-23T11:39:22.410Z,3.69
2018-11-23T11:44:25.797Z,3.60
2018-11-23T11:49:30.199Z,3.61
2018-11-23T11:54:33.874Z,3.67
2018-11-23T11:59:37.066Z,3.64
2018-11-23T12:04:40.846Z,3.51
2018-11-23T12:09:43.990Z,3.53
2018-11-23T12:14:47.361Z,3.67
2018-11-23T12:19:50.595Z,3.91
2018-11-23T12:24:53.765Z,4.09
2018-11-23T12:29:57.788Z,4.07
2018-11-23T12:35:01.052Z,4.19
2018-11-23T12:40:05.520Z,4.22
2018-11-23T12:45:10.107Z,4.21
2018-11-23T12:50:14.705Z,4.22
2018-11-23T12:55:17.924Z,4.15
2018-11-23T13:00:21.043Z,4.00
2018-11-23T13:05:24.296Z,4.03
2018-11-23T13:10:27.532Z,4.03
2018-11-23T13:15:30.795Z,4.03
2018-11-23T13:20:34.173Z,3.97
2018-11-23T13:25:37.467Z,3.90
2018-11-23T13:30:40.590Z,3.92
2018-11-23T13:35:44.046Z,3.91
2018-11-23T13:40:47.261Z,3.85
2018-11-23T13:45:50.504Z,3.92
2018-11-23T13:50:53.679Z,3.90
2018-11-23T13:55:56.906Z,3.89
2018-11-23T14:01:00.649Z,3.86
2018-11-23T14:06:03.945Z,3.82
2018-11-23T14:11:08.095Z,3.84
2018-11-23T14:16:11.865Z,3.81
2018-11-23T14:21:15.328Z,3.80
2018-11-23T14:26:19.163Z,3.78
2018-11-23T14:31:22.465Z,3.68
2018-11-23T14:36:25.609Z,3.60
2018-11-23T14:41:29.351Z,3.59
2018-11-23T14:46:32.888Z,3.50
2018-11-23T14:51:36.372Z,3.48
2018-11-23T14:56:39.646Z,3.48
2018-11-23T15:01:43.690Z,3.47
2018-11-23T15:06:48.370Z,3.42
2018-11-23T15:11:51.667Z,3.34
2018-11-23T15:16:55.187Z,3.40
2018-11-23T15:21:58.669Z,3.34
2018-11-23T15:27:02.403Z,3.29
2018-11-23T15:32:06.168Z,3.27
2018-11-23T15:37:09.473Z,3.20
2018-11-23T15:42:12.907Z,3.21
2018-11-23T15:47:16.132Z,3.19
2018-11-23T15:52:19.501Z,3.19
2018-11-23T15:57:24.551Z,3.16
2018-11-23T16:02:27.864Z,3.11
2018-11-23T16:07:31.564Z,3.12
2018-11-23T16:12:35.006Z,3.14
2018-11-23T16:17:38.305Z,3.04
2018-11-23T16:22:42.593Z,3.01
2018-11-23T16:27:45.945Z,2.94
2018-11-23T16:32:49.188Z,2.94
2018-11-23T16:37:52.475Z,2.95
2018-11-23T16:42:55.674Z,3.00
2018-11-23T16:47:59.965Z,3.05
2018-11-23T16:53:04.197Z,3.02
2018-11-23T16:58:07.534Z,3.03
2018-11-23T17:03:11.293Z,3.06
2018-11-23T17:08:14.594Z,3.04
2018-11-23T17:13:17.855Z,3.02
2018-11-23T17:18:21.062Z,3.00
2018-11-23T17:23:24.393Z,3.03
2018-11-23T17:28:27.652Z,3.00
2018-11-23T17:33:30.957Z,3.03
2018-11-23T17:38:37.682Z,3.01
2018-11-23T17:43:37.420Z,3.04
2018-11-23T17:48:40.760Z,3.20
2018-11-23T17:53:44.560Z,3.32
2018-11-23T17:58:48.345Z,3.31
2018-11-23T18:03:51.753Z,3.33
2018-11-23T18:08:55.137Z,3.30
2018-11-23T18:14:13.483Z,3.16
2018-11-23T18:19:18.838Z,3.20
2018-11-23T18:24:22.942Z,3.32
2018-11-23T18:29:26.838Z,3.35
2018-11-23T18:34:30.981Z,3.36
2018-11-23T18:39:36.115Z,3.37
2018-11-23T18:44:42.744Z,3.39
2018-11-23T18:49:48.580Z,3.28
2018-11-23T18:54:56.373Z,3.31
2018-11-23T19:00:01.910Z,3.19
2018-11-23T19:05:12.771Z,3.22
2018-11-23T19:10:18.608Z,3.33
2018-11-23T19:15:25.443Z,3.26
2018-11-23T19:20:30.567Z,3.24
2018-11-23T19:25:36.805Z,3.24
2018-11-23T19:30:43.222Z,3.08
2018-11-23T19:35:49.433Z,3.09
2018-11-23T19:40:55.223Z,3.05
2018-11-23T19:46:02.722Z,3.03
2018-11-23T19:51:08.695Z,3.00
2018-11-23T19:56:15.095Z,2.90
2018-11-23T20:01:20.874Z,2.83
2018-11-23T20:06:27.193Z,2.81
2018-11-23T20:11:33.833Z,2.77
2018-11-23T20:16:39.682Z,2.72
2018-11-23T20:21:42.844Z,2.73
2018-11-23T20:26:46.566Z,2.63
2018-11-23T20:31:49.930Z,2.61
2018-11-23T20:36:54.970Z,2.55
2018-11-23T20:42:01.509Z,2.43
2018-11-23T20:47:08.350Z,2.21
2018-11-23T20:52:14.982Z,2.01
2018-11-23T20:57:21.363Z,1.68
2018-11-23T21:02:27.774Z,1.39
2018-11-23T21:07:34.888Z,1.26
2018-11-23T21:12:41.499Z,1.11
2018-11-23T21:17:44.938Z,1.18
2018-11-23T21:22:57.457Z,1.47
2018-11-23T21:28:01.053Z,1.86
2018-11-23T21:33:04.398Z,1.93
2018-11-23T21:38:12.312Z,1.94
2018-11-23T21:43:19.074Z,1.96
2018-11-23T21:48:24.701Z,1.98
2018-11-23T21:53:30.702Z,1.95
2018-11-23T21:58:36.037Z,1.96
2018-11-23T22:03:42.254Z,1.98
2018-11-23T22:08:46.644Z,2.04
2018-11-23T22:13:53.398Z,2.02
2018-11-23T22:18:56.836Z,2.01
2018-11-23T22:24:01.726Z,1.96
2018-11-23T22:29:03.947Z,2.00
2018-11-23T22:34:07.278Z,1.94
2018-11-23T22:39:10.488Z,1.91
2018-11-23T22:44:13.676Z,1.79
2018-11-23T22:49:16.842Z,1.75
2018-11-23T22:54:20.057Z,1.65
2018-11-23T22:59:23.287Z,1.66
2018-11-23T23:04:26.927Z,1.61
2018-11-23T23:09:30.244Z,1.59
2018-11-23T23:14:33.523Z,1.64
2018-11-23T23:19:36.801Z,1.52
2018-11-23T23:24:40.117Z,1.40
2018-11-23T23:29:43.272Z,1.29
2018-11-23T23:34:46.499Z,1.18
2018-11-23T23:39:49.844Z,1.14
2018-11-23T23:44:53.080Z,1.14
2018-11-23T23:49:56.215Z,1.15
2018-11-23T23:54:59.604Z,1.08
